Ashburn, VA (20146)

3:21 PM EDT on August 03, 2015 (GMT -0400)
One Loudoun | | Change Station
CLOSE
Current Station
Personal Weather Station
Location: Ashburn, VA
Elevation: 236 ft
Nearby Weather Stations

Elev 236 ft 39.05 °N, 77.46 °W | Updated 4 minutes ago

Mostly Cloudy
Mostly Cloudy
89.8 °F
Feels Like 91 °F
N
8.0
Wind Variable Wind from SW

Today
High -- | Low -- °F
--% Chance of Precip.
Yesterday
High -- | Low -- °F
Precip. -- in
6:12 AM 8:19 PM
Waning Gibbous, 84% visible
Pressure 29.83 in
Visibility 10.0 miles
Clouds Few 4500 ft
Mostly Cloudy 22000 ft
Heat Index 91 °F
Dew Point 64 °F
Humidity 42%
Rainfall 0.00 in
Snow Depth Not available.
UV 4.0 out of 12
Pollen 7.40 out of 12
Air Quality Not available.
Flu Activity Not available.
METAR KIAD 031852Z 21009KT 10SM FEW045 BKN220 31/16 A2984 RMK AO2 SLP100 T03060161

More Conditions Fewer Conditions

Pressure 29.83 in
Visibility 10.0 miles
Clouds Few 4500 ft
Mostly Cloudy 22000 ft
Heat Index 91 °F
Dew Point 64 °F
Humidity 42%
Rainfall 0.00 in
Snow Depth Not available.
UV 4.0 out of 12
Pollen 7.40 out of 12
Air Quality Not available.
Flu Activity Not available.
METAR KIAD 031852Z 21009KT 10SM FEW045 BKN220 31/16 A2984 RMK AO2 SLP100 T03060161

More Conditions Fewer Conditions

10-Day Weather Forecast

×

Almanac

Astronomy

Aug. 03, 2015 Rise Set
Actual Time
Civil Twilight
Nautical Twilight
Astronomical Twilight
Moon
Length of Visible Light
Length of Day
Tomorrow will be .
, % of the Moon is Illuminated

Today's Extremes

State Highs State Lows

Community

WunderPhotos

Upload Photos

1,843,710 photos uploaded!

WunderBlogs® & News

Nearby

Air Quality

  Air Quality AQ Index Pollutant
Not available.

Snow Depth

Station Depth Elevation

Earthquake Activity

City Distance Mag. Time & Date
Minimum magnitude displayed is 2.5.

Coastal Water Temperatures

Place Temperature

Stations

Nearby Weather Stations

Station Location Temp. Windchill Dew Point Humidity Wind Precip. Elev Updated Type